sensor_id;sensor_type;location;lat;lon;timestamp;P1;durP1;ratioP1;P2;durP2;ratioP2
23117;SDS011;11728;50.624;6.014;2022-08-01T00:01:50;2.92;;;1.00;;
23117;SDS011;11728;50.624;6.014;2022-08-01T00:07:09;5.40;;;1.00;;
23117;SDS011;11728;50.624;6.014;2022-08-01T00:12:17;2.90;;;0.80;;
23117;SDS011;11728;50.624;6.014;2022-08-01T00:17:24;2.95;;;1.00;;
23117;SDS011;11728;50.624;6.014;2022-08-01T00:22:43;3.80;;;1.13;;
23117;SDS011;11728;50.624;6.014;2022-08-01T00:27:43;5.38;;;1.20;;
23117;SDS011;11728;50.624;6.014;2022-08-01T00:33:02;3.13;;;1.33;;
23117;SDS011;11728;50.624;6.014;2022-08-01T00:38:21;3.30;;;1.33;;
23117;SDS011;11728;50.624;6.014;2022-08-01T00:43:23;3.08;;;1.65;;
23117;SDS011;11728;50.624;6.014;2022-08-01T00:48:39;2.50;;;1.58;;
23117;SDS011;11728;50.624;6.014;2022-08-01T00:53:54;3.75;;;1.85;;
23117;SDS011;11728;50.624;6.014;2022-08-01T00:59:01;4.75;;;2.30;;
23117;SDS011;11728;50.624;6.014;2022-08-01T01:04:16;3.42;;;1.40;;
23117;SDS011;11728;50.624;6.014;2022-08-01T01:14:51;5.05;;;1.70;;
23117;SDS011;11728;50.624;6.014;2022-08-01T01:19:57;4.17;;;1.60;;
23117;SDS011;11728;50.624;6.014;2022-08-01T01:30:32;2.42;;;1.20;;
23117;SDS011;11728;50.624;6.014;2022-08-01T01:35:35;3.33;;;1.52;;
23117;SDS011;11728;50.624;6.014;2022-08-01T01:40:41;5.22;;;1.48;;
23117;SDS011;11728;50.624;6.014;2022-08-01T01:45:47;2.30;;;1.48;;
23117;SDS011;11728;50.624;6.014;2022-08-01T01:51:01;5.25;;;1.90;;
23117;SDS011;11728;50.624;6.014;2022-08-01T01:56:19;3.40;;;1.70;;
23117;SDS011;11728;50.624;6.014;2022-08-01T02:01:25;3.70;;;2.03;;
23117;SDS011;11728;50.624;6.014;2022-08-01T02:06:40;3.88;;;1.92;;
23117;SDS011;11728;50.624;6.014;2022-08-01T02:11:54;4.15;;;1.98;;
23117;SDS011;11728;50.624;6.014;2022-08-01T02:17:01;3.75;;;1.70;;
23117;SDS011;11728;50.624;6.014;2022-08-01T02:22:32;4.93;;;1.63;;
23117;SDS011;11728;50.624;6.014;2022-08-01T02:27:41;5.18;;;1.92;;
23117;SDS011;11728;50.624;6.014;2022-08-01T02:32:58;5.15;;;1.90;;
23117;SDS011;11728;50.624;6.014;2022-08-01T02:38:03;3.25;;;1.75;;
23117;SDS011;11728;50.624;6.014;2022-08-01T02:43:06;4.95;;;2.40;;
23117;SDS011;11728;50.624;6.014;2022-08-01T02:48:12;5.57;;;2.20;;
23117;SDS011;11728;50.624;6.014;2022-08-01T02:53:27;5.35;;;2.65;;
23117;SDS011;11728;50.624;6.014;2022-08-01T02:58:44;5.97;;;2.53;;
23117;SDS011;11728;50.624;6.014;2022-08-01T03:03:49;6.00;;;2.17;;
23117;SDS011;11728;50.624;6.014;2022-08-01T03:09:04;5.05;;;2.50;;
23117;SDS011;11728;50.624;6.014;2022-08-01T03:14:18;5.82;;;2.25;;
23117;SDS011;11728;50.624;6.014;2022-08-01T03:19:25;8.02;;;2.20;;
23117;SDS011;11728;50.624;6.014;2022-08-01T03:24:42;5.25;;;2.67;;
23117;SDS011;11728;50.624;6.014;2022-08-01T03:29:57;4.93;;;2.30;;
23117;SDS011;11728;50.624;6.014;2022-08-01T03:35:02;4.97;;;2.58;;
23117;SDS011;11728;50.624;6.014;2022-08-01T03:40:24;4.60;;;2.55;;
23117;SDS011;11728;50.624;6.014;2022-08-01T03:45:36;3.72;;;2.15;;
23117;SDS011;11728;50.624;6.014;2022-08-01T03:50:41;5.10;;;2.55;;
23117;SDS011;11728;50.624;6.014;2022-08-01T03:55:58;5.72;;;2.35;;
23117;SDS011;11728;50.624;6.014;2022-08-01T04:01:10;4.13;;;1.83;;
23117;SDS011;11728;50.624;6.014;2022-08-01T04:06:16;6.93;;;2.95;;
23117;SDS011;11728;50.624;6.014;2022-08-01T04:11:30;5.22;;;2.28;;
23117;SDS011;11728;50.624;6.014;2022-08-01T04:16:49;5.90;;;2.37;;
23117;SDS011;11728;50.624;6.014;2022-08-01T04:21:52;4.18;;;2.40;;
23117;SDS011;11728;50.624;6.014;2022-08-01T04:27:10;4.25;;;2.78;;
23117;SDS011;11728;50.624;6.014;2022-08-01T04:32:24;5.22;;;2.75;;
23117;SDS011;11728;50.624;6.014;2022-08-01T04:37:31;4.95;;;3.00;;
23117;SDS011;11728;50.624;6.014;2022-08-01T04:42:48;6.00;;;2.78;;
23117;SDS011;11728;50.624;6.014;2022-08-01T04:48:04;4.60;;;3.22;;
23117;SDS011;11728;50.624;6.014;2022-08-01T04:53:16;7.40;;;3.22;;
23117;SDS011;11728;50.624;6.014;2022-08-01T04:58:24;5.78;;;3.30;;
23117;SDS011;11728;50.624;6.014;2022-08-01T05:03:40;7.63;;;4.70;;
23117;SDS011;11728;50.624;6.014;2022-08-01T05:08:43;8.10;;;5.43;;
23117;SDS011;11728;50.624;6.014;2022-08-01T05:13:59;7.18;;;5.05;;
23117;SDS011;11728;50.624;6.014;2022-08-01T05:19:15;9.43;;;5.25;;
23117;SDS011;11728;50.624;6.014;2022-08-01T05:24:16;8.00;;;4.95;;
23117;SDS011;11728;50.624;6.014;2022-08-01T05:29:35;12.23;;;6.00;;
23117;SDS011;11728;50.624;6.014;2022-08-01T05:34:51;12.60;;;5.35;;
23117;SDS011;11728;50.624;6.014;2022-08-01T05:39:54;8.90;;;5.78;;
23117;SDS011;11728;50.624;6.014;2022-08-01T05:45:13;6.88;;;5.03;;
23117;SDS011;11728;50.624;6.014;2022-08-01T05:50:29;7.63;;;5.20;;
23117;SDS011;11728;50.624;6.014;2022-08-01T05:55:32;8.68;;;5.65;;
23117;SDS011;11728;50.624;6.014;2022-08-01T06:00:51;7.47;;;5.20;;
23117;SDS011;11728;50.624;6.014;2022-08-01T06:06:07;7.07;;;5.20;;
23117;SDS011;11728;50.624;6.014;2022-08-01T06:11:07;7.03;;;5.38;;
23117;SDS011;11728;50.624;6.014;2022-08-01T06:16:26;9.33;;;6.27;;
23117;SDS011;11728;50.624;6.014;2022-08-01T06:21:45;8.93;;;6.50;;
23117;SDS011;11728;50.624;6.014;2022-08-01T06:26:49;9.45;;;6.38;;
23117;SDS011;11728;50.624;6.014;2022-08-01T06:32:03;12.65;;;7.50;;
23117;SDS011;11728;50.624;6.014;2022-08-01T06:37:23;10.60;;;7.38;;
23117;SDS011;11728;50.624;6.014;2022-08-01T06:42:24;10.88;;;7.25;;
23117;SDS011;11728;50.624;6.014;2022-08-01T06:47:43;12.75;;;8.18;;
23117;SDS011;11728;50.624;6.014;2022-08-01T06:53:00;18.73;;;9.13;;
23117;SDS011;11728;50.624;6.014;2022-08-01T06:58:03;13.50;;;9.43;;
23117;SDS011;11728;50.624;6.014;2022-08-01T07:03:23;14.82;;;11.23;;
23117;SDS011;11728;50.624;6.014;2022-08-01T07:08:23;15.63;;;12.40;;
23117;SDS011;11728;50.624;6.014;2022-08-01T07:13:25;22.20;;;14.10;;
23117;SDS011;11728;50.624;6.014;2022-08-01T07:18:30;16.02;;;12.48;;
23117;SDS011;11728;50.624;6.014;2022-08-01T07:23:31;18.13;;;11.88;;
23117;SDS011;11728;50.624;6.014;2022-08-01T07:28:32;16.90;;;11.80;;
23117;SDS011;11728;50.624;6.014;2022-08-01T07:33:32;16.33;;;10.77;;
23117;SDS011;11728;50.624;6.014;2022-08-01T07:38:33;17.52;;;11.43;;
23117;SDS011;11728;50.624;6.014;2022-08-01T07:43:34;19.35;;;11.85;;
23117;SDS011;11728;50.624;6.014;2022-08-01T07:48:36;15.80;;;11.15;;
23117;SDS011;11728;50.624;6.014;2022-08-01T07:53:36;13.40;;;9.98;;
23117;SDS011;11728;50.624;6.014;2022-08-01T07:58:37;12.55;;;9.02;;
23117;SDS011;11728;50.624;6.014;2022-08-01T08:03:37;17.75;;;10.05;;
23117;SDS011;11728;50.624;6.014;2022-08-01T08:08:38;12.93;;;9.60;;
23117;SDS011;11728;50.624;6.014;2022-08-01T08:13:39;15.60;;;11.02;;
23117;SDS011;11728;50.624;6.014;2022-08-01T08:18:39;13.20;;;10.18;;
23117;SDS011;11728;50.624;6.014;2022-08-01T08:23:40;15.65;;;10.73;;
23117;SDS011;11728;50.624;6.014;2022-08-01T08:28:59;12.17;;;9.83;;
23117;SDS011;11728;50.624;6.014;2022-08-01T08:33:59;13.82;;;10.25;;
23117;SDS011;11728;50.624;6.014;2022-08-01T08:39:00;14.52;;;9.75;;
23117;SDS011;11728;50.624;6.014;2022-08-01T08:44:02;9.75;;;8.32;;
23117;SDS011;11728;50.624;6.014;2022-08-01T08:49:06;9.30;;;6.72;;
23117;SDS011;11728;50.624;6.014;2022-08-01T08:54:08;9.27;;;6.85;;
23117;SDS011;11728;50.624;6.014;2022-08-01T08:59:11;7.95;;;5.88;;
23117;SDS011;11728;50.624;6.014;2022-08-01T09:04:14;9.07;;;8.13;;
23117;SDS011;11728;50.624;6.014;2022-08-01T09:09:14;11.68;;;8.57;;
23117;SDS011;11728;50.624;6.014;2022-08-01T09:14:16;16.30;;;10.63;;
23117;SDS011;11728;50.624;6.014;2022-08-01T09:19:24;13.23;;;10.73;;
23117;SDS011;11728;50.624;6.014;2022-08-01T09:24:25;16.55;;;11.57;;
23117;SDS011;11728;50.624;6.014;2022-08-01T09:29:28;13.88;;;10.55;;
23117;SDS011;11728;50.624;6.014;2022-08-01T09:34:31;10.50;;;8.77;;
23117;SDS011;11728;50.624;6.014;2022-08-01T09:39:34;10.35;;;9.23;;
23117;SDS011;11728;50.624;6.014;2022-08-01T09:44:38;9.75;;;7.53;;
23117;SDS011;11728;50.624;6.014;2022-08-01T09:49:41;8.05;;;7.15;;
23117;SDS011;11728;50.624;6.014;2022-08-01T09:54:44;6.85;;;5.82;;
23117;SDS011;11728;50.624;6.014;2022-08-01T09:59:54;5.63;;;4.70;;
23117;SDS011;11728;50.624;6.014;2022-08-01T10:04:59;4.32;;;3.92;;
23117;SDS011;11728;50.624;6.014;2022-08-01T10:10:10;2.92;;;2.28;;
23117;SDS011;11728;50.624;6.014;2022-08-01T10:15:14;3.38;;;2.75;;
23117;SDS011;11728;50.624;6.014;2022-08-01T10:20:18;4.20;;;3.80;;
23117;SDS011;11728;50.624;6.014;2022-08-01T10:25:21;10.77;;;3.83;;
23117;SDS011;11728;50.624;6.014;2022-08-01T10:30:23;5.10;;;4.22;;
23117;SDS011;11728;50.624;6.014;2022-08-01T10:35:24;7.18;;;6.15;;
23117;SDS011;11728;50.624;6.014;2022-08-01T10:40:24;10.55;;;7.53;;
23117;SDS011;11728;50.624;6.014;2022-08-01T10:45:26;9.85;;;7.88;;
23117;SDS011;11728;50.624;6.014;2022-08-01T10:50:29;12.27;;;9.00;;
23117;SDS011;11728;50.624;6.014;2022-08-01T11:06:16;11.67;;;8.60;;
23117;SDS011;11728;50.624;6.014;2022-08-01T11:11:23;11.70;;;8.55;;
23117;SDS011;11728;50.624;6.014;2022-08-01T11:16:25;11.30;;;8.02;;
23117;SDS011;11728;50.624;6.014;2022-08-01T11:32:27;10.60;;;7.53;;
23117;SDS011;11728;50.624;6.014;2022-08-01T11:37:28;10.35;;;7.55;;
23117;SDS011;11728;50.624;6.014;2022-08-01T11:42:29;10.23;;;7.93;;
23117;SDS011;11728;50.624;6.014;2022-08-01T11:47:48;10.40;;;8.80;;
23117;SDS011;11728;50.624;6.014;2022-08-01T11:52:56;10.30;;;8.68;;
23117;SDS011;11728;50.624;6.014;2022-08-01T11:58:01;9.95;;;8.77;;
23117;SDS011;11728;50.624;6.014;2022-08-01T12:03:07;11.07;;;9.75;;
23117;SDS011;11728;50.624;6.014;2022-08-01T12:08:11;9.60;;;8.38;;
23117;SDS011;11728;50.624;6.014;2022-08-01T12:13:12;7.55;;;5.68;;
23117;SDS011;11728;50.624;6.014;2022-08-01T12:18:12;8.02;;;7.18;;
23117;SDS011;11728;50.624;6.014;2022-08-01T12:23:15;6.55;;;5.45;;
23117;SDS011;11728;50.624;6.014;2022-08-01T12:28:16;9.90;;;6.68;;
23117;SDS011;11728;50.624;6.014;2022-08-01T12:33:19;6.07;;;5.10;;
23117;SDS011;11728;50.624;6.014;2022-08-01T12:38:21;8.30;;;6.78;;
23117;SDS011;11728;50.624;6.014;2022-08-01T12:43:23;6.82;;;5.85;;
23117;SDS011;11728;50.624;6.014;2022-08-01T12:48:26;6.72;;;5.50;;
23117;SDS011;11728;50.624;6.014;2022-08-01T12:53:28;9.02;;;6.65;;
23117;SDS011;11728;50.624;6.014;2022-08-01T12:58:33;12.88;;;6.90;;
23117;SDS011;11728;50.624;6.014;2022-08-01T13:03:34;7.97;;;5.82;;
23117;SDS011;11728;50.624;6.014;2022-08-01T13:08:35;6.60;;;5.28;;
23117;SDS011;11728;50.624;6.014;2022-08-01T13:13:42;5.50;;;4.38;;
23117;SDS011;11728;50.624;6.014;2022-08-01T13:18:50;5.25;;;4.30;;
23117;SDS011;11728;50.624;6.014;2022-08-01T13:24:05;5.88;;;4.10;;
23117;SDS011;11728;50.624;6.014;2022-08-01T13:29:12;5.05;;;4.55;;
23117;SDS011;11728;50.624;6.014;2022-08-01T13:34:14;5.75;;;4.70;;
23117;SDS011;11728;50.624;6.014;2022-08-01T13:39:15;6.82;;;5.40;;
23117;SDS011;11728;50.624;6.014;2022-08-01T13:49:35;5.28;;;4.65;;
23117;SDS011;11728;50.624;6.014;2022-08-01T13:54:36;7.07;;;5.13;;
23117;SDS011;11728;50.624;6.014;2022-08-01T13:59:36;5.72;;;4.35;;
23117;SDS011;11728;50.624;6.014;2022-08-01T14:04:37;8.55;;;4.95;;
23117;SDS011;11728;50.624;6.014;2022-08-01T14:09:38;5.35;;;4.53;;
23117;SDS011;11728;50.624;6.014;2022-08-01T14:14:39;7.78;;;3.90;;
23117;SDS011;11728;50.624;6.014;2022-08-01T14:19:39;5.22;;;3.50;;
23117;SDS011;11728;50.624;6.014;2022-08-01T14:24:40;5.43;;;4.50;;
23117;SDS011;11728;50.624;6.014;2022-08-01T14:29:40;6.13;;;3.50;;
23117;SDS011;11728;50.624;6.014;2022-08-01T14:34:41;4.75;;;3.30;;
23117;SDS011;11728;50.624;6.014;2022-08-01T14:39:41;4.60;;;2.85;;
23117;SDS011;11728;50.624;6.014;2022-08-01T14:44:42;2.50;;;1.70;;
23117;SDS011;11728;50.624;6.014;2022-08-01T14:49:43;3.70;;;1.52;;
23117;SDS011;11728;50.624;6.014;2022-08-01T14:54:43;4.45;;;1.85;;
23117;SDS011;11728;50.624;6.014;2022-08-01T14:59:44;3.15;;;1.70;;
23117;SDS011;11728;50.624;6.014;2022-08-01T15:04:45;3.40;;;1.38;;
23117;SDS011;11728;50.624;6.014;2022-08-01T15:09:46;2.60;;;1.42;;
23117;SDS011;11728;50.624;6.014;2022-08-01T15:14:47;2.40;;;1.50;;
23117;SDS011;11728;50.624;6.014;2022-08-01T15:19:48;2.75;;;1.38;;
23117;SDS011;11728;50.624;6.014;2022-08-01T15:24:51;3.70;;;1.40;;
23117;SDS011;11728;50.624;6.014;2022-08-01T15:29:53;2.10;;;1.60;;
23117;SDS011;11728;50.624;6.014;2022-08-01T15:34:55;4.05;;;1.50;;
23117;SDS011;11728;50.624;6.014;2022-08-01T15:39:55;2.67;;;1.33;;
23117;SDS011;11728;50.624;6.014;2022-08-01T15:44:56;2.47;;;1.20;;
23117;SDS011;11728;50.624;6.014;2022-08-01T15:49:56;5.28;;;1.25;;
23117;SDS011;11728;50.624;6.014;2022-08-01T15:55:01;5.13;;;1.50;;
23117;SDS011;11728;50.624;6.014;2022-08-01T16:00:03;2.60;;;1.40;;
23117;SDS011;11728;50.624;6.014;2022-08-01T16:05:12;3.20;;;1.30;;
23117;SDS011;11728;50.624;6.014;2022-08-01T16:10:12;4.07;;;1.15;;
23117;SDS011;11728;50.624;6.014;2022-08-01T16:15:13;3.47;;;1.83;;
23117;SDS011;11728;50.624;6.014;2022-08-01T16:20:13;2.85;;;1.60;;
23117;SDS011;11728;50.624;6.014;2022-08-01T16:25:14;4.90;;;1.65;;
23117;SDS011;11728;50.624;6.014;2022-08-01T16:30:15;3.70;;;1.77;;
23117;SDS011;11728;50.624;6.014;2022-08-01T16:35:16;4.47;;;2.05;;
23117;SDS011;11728;50.624;6.014;2022-08-01T16:40:17;5.70;;;2.10;;
23117;SDS011;11728;50.624;6.014;2022-08-01T16:45:18;4.45;;;2.00;;
23117;SDS011;11728;50.624;6.014;2022-08-01T16:50:20;4.60;;;2.05;;
23117;SDS011;11728;50.624;6.014;2022-08-01T16:55:21;3.75;;;1.83;;
23117;SDS011;11728;50.624;6.014;2022-08-01T17:00:22;8.48;;;1.60;;
23117;SDS011;11728;50.624;6.014;2022-08-01T17:05:25;3.05;;;1.80;;
23117;SDS011;11728;50.624;6.014;2022-08-01T17:10:27;3.47;;;2.00;;
23117;SDS011;11728;50.624;6.014;2022-08-01T17:15:28;3.90;;;2.03;;
23117;SDS011;11728;50.624;6.014;2022-08-01T17:20:29;4.82;;;1.90;;
23117;SDS011;11728;50.624;6.014;2022-08-01T17:25:29;2.80;;;1.60;;
23117;SDS011;11728;50.624;6.014;2022-08-01T17:30:30;2.50;;;1.55;;
23117;SDS011;11728;50.624;6.014;2022-08-01T17:35:31;4.60;;;2.17;;
23117;SDS011;11728;50.624;6.014;2022-08-01T17:40:31;3.17;;;2.10;;
23117;SDS011;11728;50.624;6.014;2022-08-01T17:45:32;5.00;;;1.90;;
23117;SDS011;11728;50.624;6.014;2022-08-01T17:50:33;4.45;;;1.60;;
23117;SDS011;11728;50.624;6.014;2022-08-01T17:55:34;3.35;;;1.70;;
23117;SDS011;11728;50.624;6.014;2022-08-01T18:00:35;3.28;;;1.67;;
23117;SDS011;11728;50.624;6.014;2022-08-01T18:05:37;5.07;;;1.60;;
23117;SDS011;11728;50.624;6.014;2022-08-01T18:10:38;4.38;;;1.77;;
23117;SDS011;11728;50.624;6.014;2022-08-01T18:15:39;3.00;;;1.52;;
23117;SDS011;11728;50.624;6.014;2022-08-01T18:20:39;2.90;;;1.42;;
23117;SDS011;11728;50.624;6.014;2022-08-01T18:25:40;3.08;;;1.48;;
23117;SDS011;11728;50.624;6.014;2022-08-01T18:30:40;4.93;;;2.00;;
23117;SDS011;11728;50.624;6.014;2022-08-01T18:35:41;6.10;;;1.60;;
23117;SDS011;11728;50.624;6.014;2022-08-01T18:40:42;2.55;;;1.95;;
23117;SDS011;11728;50.624;6.014;2022-08-01T18:45:43;3.65;;;1.60;;
23117;SDS011;11728;50.624;6.014;2022-08-01T18:50:43;5.00;;;1.73;;
23117;SDS011;11728;50.624;6.014;2022-08-01T18:55:44;3.15;;;1.60;;
23117;SDS011;11728;50.624;6.014;2022-08-01T19:00:44;3.28;;;1.90;;
23117;SDS011;11728;50.624;6.014;2022-08-01T19:05:45;4.38;;;1.55;;
23117;SDS011;11728;50.624;6.014;2022-08-01T19:10:49;4.45;;;1.85;;
23117;SDS011;11728;50.624;6.014;2022-08-01T19:15:50;3.38;;;1.80;;
23117;SDS011;11728;50.624;6.014;2022-08-01T19:20:51;4.90;;;2.33;;
23117;SDS011;11728;50.624;6.014;2022-08-01T19:25:54;5.53;;;2.33;;
23117;SDS011;11728;50.624;6.014;2022-08-01T19:30:55;5.22;;;2.33;;
23117;SDS011;11728;50.624;6.014;2022-08-01T19:35:58;5.30;;;1.90;;
23117;SDS011;11728;50.624;6.014;2022-08-01T19:40:59;5.25;;;1.80;;
23117;SDS011;11728;50.624;6.014;2022-08-01T19:46:02;3.00;;;1.75;;
23117;SDS011;11728;50.624;6.014;2022-08-01T19:51:05;4.15;;;2.05;;
23117;SDS011;11728;50.624;6.014;2022-08-01T19:56:06;5.00;;;2.20;;
23117;SDS011;11728;50.624;6.014;2022-08-01T20:01:08;4.15;;;2.20;;
23117;SDS011;11728;50.624;6.014;2022-08-01T20:06:11;3.78;;;2.40;;
23117;SDS011;11728;50.624;6.014;2022-08-01T20:11:12;5.13;;;2.00;;
23117;SDS011;11728;50.624;6.014;2022-08-01T20:16:12;8.07;;;2.13;;
23117;SDS011;11728;50.624;6.014;2022-08-01T20:21:13;3.58;;;2.10;;
23117;SDS011;11728;50.624;6.014;2022-08-01T20:26:14;3.70;;;2.00;;
23117;SDS011;11728;50.624;6.014;2022-08-01T20:31:17;5.10;;;2.38;;
23117;SDS011;11728;50.624;6.014;2022-08-01T20:36:20;6.32;;;2.35;;
23117;SDS011;11728;50.624;6.014;2022-08-01T20:41:23;5.13;;;2.22;;
23117;SDS011;11728;50.624;6.014;2022-08-01T20:46:25;7.00;;;2.47;;
23117;SDS011;11728;50.624;6.014;2022-08-01T20:51:27;5.32;;;2.20;;
23117;SDS011;11728;50.624;6.014;2022-08-01T21:01:48;3.55;;;2.10;;
23117;SDS011;11728;50.624;6.014;2022-08-01T21:06:53;6.38;;;2.80;;
23117;SDS011;11728;50.624;6.014;2022-08-01T21:12:01;3.88;;;2.50;;
23117;SDS011;11728;50.624;6.014;2022-08-01T21:17:05;4.18;;;2.30;;
23117;SDS011;11728;50.624;6.014;2022-08-01T21:22:11;3.33;;;2.38;;
23117;SDS011;11728;50.624;6.014;2022-08-01T21:32:21;4.10;;;2.30;;
23117;SDS011;11728;50.624;6.014;2022-08-01T21:37:26;3.03;;;1.95;;
23117;SDS011;11728;50.624;6.014;2022-08-01T21:42:28;5.93;;;2.38;;
23117;SDS011;11728;50.624;6.014;2022-08-01T21:47:29;3.90;;;2.70;;
23117;SDS011;11728;50.624;6.014;2022-08-01T21:52:32;3.95;;;2.60;;
23117;SDS011;11728;50.624;6.014;2022-08-01T21:57:49;6.05;;;2.78;;
23117;SDS011;11728;50.624;6.014;2022-08-01T22:02:55;4.88;;;2.60;;
23117;SDS011;11728;50.624;6.014;2022-08-01T22:08:19;4.45;;;2.67;;
23117;SDS011;11728;50.624;6.014;2022-08-01T22:13:23;4.00;;;2.47;;
23117;SDS011;11728;50.624;6.014;2022-08-01T22:18:25;5.22;;;3.00;;
23117;SDS011;11728;50.624;6.014;2022-08-01T22:23:26;5.32;;;3.00;;
23117;SDS011;11728;50.624;6.014;2022-08-01T22:28:27;5.85;;;2.92;;
23117;SDS011;11728;50.624;6.014;2022-08-01T22:33:28;6.63;;;3.20;;
23117;SDS011;11728;50.624;6.014;2022-08-01T22:38:29;5.22;;;2.90;;
23117;SDS011;11728;50.624;6.014;2022-08-01T22:54:37;7.88;;;2.90;;
23117;SDS011;11728;50.624;6.014;2022-08-01T23:04:42;5.70;;;3.92;;
23117;SDS011;11728;50.624;6.014;2022-08-01T23:09:44;4.05;;;2.70;;
23117;SDS011;11728;50.624;6.014;2022-08-01T23:14:45;7.70;;;3.05;;
23117;SDS011;11728;50.624;6.014;2022-08-01T23:19:46;4.13;;;2.80;;
23117;SDS011;11728;50.624;6.014;2022-08-01T23:24:47;4.45;;;2.83;;
23117;SDS011;11728;50.624;6.014;2022-08-01T23:29:51;4.47;;;3.10;;
23117;SDS011;11728;50.624;6.014;2022-08-01T23:34:55;5.18;;;2.78;;
23117;SDS011;11728;50.624;6.014;2022-08-01T23:39:56;3.58;;;2.65;;
23117;SDS011;11728;50.624;6.014;2022-08-01T23:44:58;5.97;;;2.97;;
23117;SDS011;11728;50.624;6.014;2022-08-01T23:49:58;3.50;;;2.67;;
23117;SDS011;11728;50.624;6.014;2022-08-01T23:54:59;5.82;;;2.53;;
